CheckWX is a tool to help pilots better visualize weather data.  It is not intended as a substitute for an official pre-flight weather briefing.

04:51:32 UTC

KSEA TAF
Seattle-Tacoma International Airport
Seattle, Washington, USA
KSEA 180303Z 1803/1906 VRB06KT P6SM SCT060 BKN200 FM180800 05008KT P6SM SCT030 OVC060 FM180900 31008KT P6SM BKN012 FM181200 22007KT 6SM -DZ BR OVC010 FM182000 25007KT P6SM OVC017 FM182300 27010KT P6SM SCT025 BKN050 FM190500 22012KT P6SM BKN035 BKN070

Jun-18@
03:00 UTC

Jun-18 @ 03:00 UTC

Jun-18@
08:00 UTC

Jun-18 @ 08:00 UTC

KSEA 180303Z 1803/1906 VRB06KT P6SM SCT060 BKN200
Wind
  • Variable at 6 KTS
Cloud Levels
  • Scattered at 6,000' AGL
  • Broken at 20,000' AGL

Jun-18@
08:00 UTC

Jun-18 @ 08:00 UTC

Jun-18@
09:00 UTC

Jun-18 @ 09:00 UTC

FM180800 05008KT P6SM SCT030 OVC060

From

From Standard forecast or significant change

Wind
  • 050° at 8 KTS
Cloud Levels
  • Scattered at 3,000' AGL
  • Overcast at 6,000' AGL

Jun-18@
09:00 UTC

Jun-18 @ 09:00 UTC

Jun-18@
12:00 UTC

Jun-18 @ 12:00 UTC

FM180900 31008KT P6SM BKN012

From

From Standard forecast or significant change

Wind
  • 310° at 8 KTS
Cloud Levels
  • Broken at 1,200' AGL

Jun-18@
12:00 UTC

Jun-18 @ 12:00 UTC

Jun-18@
20:00 UTC

Jun-18 @ 20:00 UTC

FM181200 22007KT 6SM -DZ BR OVC010

From

From Standard forecast or significant change

Wind
  • 220° at 7 KTS
Conditions
Light Drizzle, Mist
Cloud Levels
  • Overcast at 1,000' AGL

Jun-18@
20:00 UTC

Jun-18 @ 20:00 UTC

Jun-18@
23:00 UTC

Jun-18 @ 23:00 UTC

FM182000 25007KT P6SM OVC017

From

From Standard forecast or significant change

Wind
  • 250° at 7 KTS
Cloud Levels
  • Overcast at 1,700' AGL

Jun-18@
23:00 UTC

Jun-18 @ 23:00 UTC

Jun-19@
05:00 UTC

Jun-19 @ 05:00 UTC

FM182300 27010KT P6SM SCT025 BKN050

From

From Standard forecast or significant change

Wind
  • 270° at 10 KTS
Cloud Levels
  • Scattered at 2,500' AGL
  • Broken at 5,000' AGL

Jun-19@
05:00 UTC

Jun-19 @ 05:00 UTC

Jun-19@
06:00 UTC

Jun-19 @ 06:00 UTC

FM190500 22012KT P6SM BKN035 BKN070

From

From Standard forecast or significant change

Wind
  • 220° at 12 KTS
Cloud Levels
  • Broken at 3,500' AGL
  • Broken at 7,000' AGL